Worthington, Missouri
Current Conditions -  °F | °C
As of 9:10 PM on Friday 28 Nov 2014 (Local Time) from KTVK Reporting Station
Clear Clear  
Wind Chill: 32°   Ceiling: Unl
Heat Index: 37°   Visibility: 10mi
Dew Point: 32°   Wind: 7mph
Humidity: 81%   Direction: 150°SSE
Pressure: 29.73"   Gusts: NA
Location:  40.41°N, 92.69°W
Report Text: KTVK 290310Z AUTO 15006KT 10SM CLR 03/00 A2973 RMK AO2
Loading
Personal Weather Stations






























Interactive Weather Map New forecast layout! Learn more

10-Day Weather Forecast

Advertisements
Track Severe Weather on mobile